Time;durP1;ratioP1;P1;durP2;ratioP2;P2;SDS_P1;SDS_P2;PMS_P1;PMS_P2;Temp;Humidity;BMP_temperature;BMP_pressure;BME280_temperature;BME280_humidity;BME280_pressure;Samples;Min_cycle;Max_cycle;Signal;HPM_P1;HPM_P2
2024/03/18 08:59:29;;;;;;;;;;;;;;;;;;6173116;22;20201;-94
2024/03/18 10:09:35;;;;;;;;;;;;;;;;;;6213905;23;19946;-94
2024/03/18 10:12:01;;;;;;;;;;;;;;;;;;6194265;23;20278;-94
2024/03/18 10:14:26;;;;;;;;;;;;;;;;;;6192085;23;19911;-93
2024/03/18 10:16:51;;;;;;;;;;;;;;;;;;6237930;23;20398;-93
2024/03/18 10:19:17;;;;;;;;;;;;;;;;;;6248347;23;20002;-93
2024/03/18 10:21:42;;;;;;;;;;;;;;;;;;6221382;23;19986;-94
2024/03/18 10:24:09;;;;;;;;;;;;;;;;;;6248975;23;19908;-92
2024/03/18 10:26:36;;;;;;;;;;;;;;;;;;6222169;23;19907;-94
2024/03/18 10:29:01;;;;;;;;;;;;;;;;;;6222119;23;19908;-93
2024/03/18 10:31:28;;;;;;;;;;;;;;;;;;6222085;23;19965;-93
2024/03/18 10:33:54;;;;;;;;;;;;;;;;;;6221908;23;19915;-93
2024/03/18 10:36:23;;;;;;;;;;;;;;;;;;6248472;23;19907;-92
2024/03/18 10:38:52;;;;;;;;;;;;;;;;;;6222030;23;19907;-94
2024/03/18 10:41:20;;;;;;;;;;;;;;;;;;6221968;23;19907;-95
2024/03/18 10:43:50;;;;;;;;;;;;;;;;;;6221720;23;20338;-91
2024/03/18 10:46:16;;;;;;;;;;;;;;;;;;6221681;23;20278;-91
2024/03/18 10:48:42;;;;;;;;;;;;;;;;;;6221821;23;19914;-91
2024/03/18 10:51:11;;;;;;;;;;;;;;;;;;6222107;23;19962;-92
2024/03/18 10:53:37;;;;;;;;;;;;;;;;;;6248483;23;19912;-92
2024/03/18 10:56:02;;;;;;;;;;;;;;;;;;6221543;23;19937;-91
2024/03/18 10:58:29;;;;;;;;;;;;;;;;;;6248658;23;19907;-93
2024/03/18 11:00:55;;;;;;;;;;;;;;;;;;6248216;23;19915;-91
2024/03/18 11:03:24;;;;;;;;;;;;;;;;;;6247974;23;20330;-91
2024/03/18 11:05:50;;;;;;;;;;;;;;;;;;6247952;23;19977;-90
2024/03/18 11:08:16;;;;;;;;;;;;;;;;;;6248349;23;19930;-91
2024/03/18 11:10:42;;;;;;;;;;;;;;;;;;6249476;23;19911;-91
2024/03/18 11:13:09;;;;;;;;;;;;;;;;;;6249260;23;19912;-92
2024/03/18 11:15:36;;;;;;;;;;;;;;;;;;6221831;23;19973;-91
2024/03/18 11:18:06;;;;;;;;;;;;;;;;;;6221723;23;19907;-91
2024/03/18 11:20:41;;;;;;;;;;;;;;;;;;6221302;23;19911;-92
2024/03/18 11:23:13;;;;;;;;;;;;;;;;;;6248303;23;19911;-91
2024/03/18 11:25:38;;;;;;;;;;;;;;;;;;6221245;23;19990;-90
2024/03/18 11:28:04;;;;;;;;;;;;;;;;;;6221043;23;20227;-89
2024/03/18 11:30:30;;;;;;;;;;;;;;;;;;6247690;23;19918;-90
2024/03/18 11:32:56;;;;;;;;;;;;;;;;;;6247917;23;19907;-93
2024/03/18 11:35:22;;;;;;;;;;;;;;;;;;6249381;23;19911;-93
2024/03/18 11:37:48;;;;;;;;;;;;;;;;;;6224235;23;19908;-91
2024/03/18 11:40:14;;;;;;;;;;;;;;;;;;6249331;23;19946;-91
2024/03/18 11:42:39;;;;;;;;;;;;;;;;;;6247882;23;19911;-91
2024/03/18 11:45:05;;;;;;;;;;;;;;;;;;6221442;23;20234;-90
2024/03/18 11:47:30;;;;;;;;;;;;;;;;;;6247661;23;19907;-89
2024/03/18 11:50:03;;;;;;;;;;;;;;;;;;6220768;23;19908;-91
2024/03/18 11:52:29;;;;;;;;;;;;;;;;;;6228313;23;19938;-92
2024/03/18 11:54:54;;;;;;;;;;;;;;;;;;6221012;23;20303;-93
2024/03/18 11:57:22;;;;;;;;;;;;;;;;;;6247350;23;20038;-92
2024/03/18 11:59:49;;;;;;;;;;;;;;;;;;6247582;23;19969;-92
2024/03/18 12:02:14;;;;;;;;;;;;;;;;;;6220947;23;19914;-92
2024/03/18 12:04:39;;;;;;;;;;;;;;;;;;6247908;23;19911;-93
2024/03/18 12:07:05;;;;;;;;;;;;;;;;;;6221083;23;20338;-93
2024/03/18 12:09:33;;;;;;;;;;;;;;;;;;6247555;23;19911;-93
2024/03/18 12:12:00;;;;;;;;;;;;;;;;;;6220818;23;19915;-91
2024/03/18 12:14:25;;;;;;;;;;;;;;;;;;6220919;23;19908;-91
2024/03/18 12:16:54;;;;;;;;;;;;;;;;;;6220869;23;20277;-92
2024/03/18 12:19:20;;;;;;;;;;;;;;;;;;6221598;23;19986;-92
2024/03/18 12:21:48;;;;;;;;;;;;;;;;;;6248715;23;19907;-91
2024/03/18 12:29:41;;;;;;;;;;;;;;;;;;6248095;23;20330;-92
2024/03/18 12:32:10;;;;;;;;;;;;;;;;;;6221080;23;19912;-93
2024/03/18 12:34:35;;;;;;;;;;;;;;;;;;6247571;23;19911;-94
2024/03/18 12:37:01;;;;;;;;;;;;;;;;;;6220966;23;20327;-94
2024/03/18 12:39:27;;;;;;;;;;;;;;;;;;6220803;23;19908;-92
2024/03/18 12:41:53;;;;;;;;;;;;;;;;;;6247574;23;19907;-91
2024/03/18 12:44:18;;;;;;;;;;;;;;;;;;6222986;23;19915;-92
2024/03/18 17:31:33;;;;;;;;;;;;;;;;;;6208861;23;19915;-96
2024/03/18 17:33:58;;;;;;;;;;;;;;;;;;6222605;23;20238;-91
2024/03/18 17:36:24;;;;;;;;;;;;;;;;;;6222922;23;19907;-91
2024/03/18 17:38:49;;;;;;;;;;;;;;;;;;6223470;23;19911;-94
2024/03/18 17:41:15;;;;;;;;;;;;;;;;;;6222271;23;20310;-91
2024/03/18 17:43:40;;;;;;;;;;;;;;;;;;6249535;23;19908;-92
2024/03/18 17:46:05;;;;;;;;;;;;;;;;;;6250024;23;20002;-94
2024/03/18 17:48:33;;;;;;;;;;;;;;;;;;6222262;23;19958;-94
2024/03/18 17:51:01;;;;;;;;;;;;;;;;;;6222618;23;19907;-95
2024/03/18 17:53:27;;;;;;;;;;;;;;;;;;6223241;23;19904;-93
2024/03/18 17:55:53;;;;;;;;;;;;;;;;;;6224515;23;19908;-93
2024/03/18 17:58:20;;;;;;;;;;;;;;;;;;6223666;23;19910;-94
2024/03/18 18:00:45;;;;;;;;;;;;;;;;;;6225268;23;19907;-95
2024/03/18 18:03:11;;;;;;;;;;;;;;;;;;6251072;23;19990;-93
2024/03/18 18:05:36;;;;;;;;;;;;;;;;;;6254502;23;19908;-93
2024/03/18 18:08:01;;;;;;;;;;;;;;;;;;6226898;23;20838;-91
2024/03/18 18:10:27;;;;;;;;;;;;;;;;;;6225123;23;19907;-92
2024/03/18 18:12:52;;;;;;;;;;;;;;;;;;6222893;23;19907;-92
2024/03/18 18:15:18;;;;;;;;;;;;;;;;;;6222379;23;19981;-93
2024/03/18 18:17:43;;;;;;;;;;;;;;;;;;6224437;23;19907;-92
2024/03/18 18:20:09;;;;;;;;;;;;;;;;;;6249850;23;20307;-95
2024/03/18 18:22:34;;;;;;;;;;;;;;;;;;6222689;23;19911;-95
2024/03/18 18:24:59;;;;;;;;;;;;;;;;;;6222125;23;20311;-95
2024/03/18 18:27:25;;;;;;;;;;;;;;;;;;6222685;23;19957;-95
2024/03/18 18:29:57;;;;;;;;;;;;;;;;;;6222577;23;19958;-93
2024/03/18 18:32:22;;;;;;;;;;;;;;;;;;6221935;23;19911;-95
2024/03/18 18:34:48;;;;;;;;;;;;;;;;;;6222179;23;19930;-93
2024/03/18 18:37:13;;;;;;;;;;;;;;;;;;6221831;23;19933;-95
2024/03/18 18:39:38;;;;;;;;;;;;;;;;;;6222301;23;19914;-95
2024/03/18 18:42:04;;;;;;;;;;;;;;;;;;6222011;23;19908;-95
2024/03/18 18:44:29;;;;;;;;;;;;;;;;;;6222308;23;19911;-95
2024/03/18 18:46:55;;;;;;;;;;;;;;;;;;6222628;23;19913;-94
2024/03/18 18:49:20;;;;;;;;;;;;;;;;;;6223177;23;20212;-94
2024/03/18 18:51:45;;;;;;;;;;;;;;;;;;6198399;23;20323;-95
2024/03/18 18:54:12;;;;;;;;;;;;;;;;;;6223493;23;19983;-96
2024/03/18 18:56:38;;;;;;;;;;;;;;;;;;6225415;23;19914;-96
2024/03/18 18:59:03;;;;;;;;;;;;;;;;;;6225418;23;19907;-94
2024/03/18 19:01:36;;;;;;;;;;;;;;;;;;6231740;23;19907;-93
2024/03/18 19:04:01;;;;;;;;;;;;;;;;;;6233158;23;19914;-94
2024/03/18 19:06:27;;;;;;;;;;;;;;;;;;6232820;23;19927;-95
2024/03/18 19:08:53;;;;;;;;;;;;;;;;;;6238158;23;19899;-93
2024/03/18 19:11:18;;;;;;;;;;;;;;;;;;6226279;23;19964;-95
2024/03/18 19:13:45;;;;;;;;;;;;;;;;;;6222636;23;19908;-93
2024/03/18 19:16:11;;;;;;;;;;;;;;;;;;6223437;23;19927;-94
2024/03/18 19:18:37;;;;;;;;;;;;;;;;;;6224053;23;19903;-92
2024/03/18 19:21:04;;;;;;;;;;;;;;;;;;6225270;23;19930;-94
2024/03/18 19:23:29;;;;;;;;;;;;;;;;;;6231998;23;19915;-93
2024/03/18 19:25:57;;;;;;;;;;;;;;;;;;6228734;23;19955;-94
2024/03/18 19:28:26;;;;;;;;;;;;;;;;;;6235907;23;19908;-95
2024/03/18 19:30:55;;;;;;;;;;;;;;;;;;6255001;22;19923;-94
2024/03/18 19:33:24;;;;;;;;;;;;;;;;;;6222848;23;19908;-95
2024/03/18 19:35:50;;;;;;;;;;;;;;;;;;6205016;23;19914;-95
2024/03/18 19:38:16;;;;;;;;;;;;;;;;;;6209137;23;19928;-96
2024/03/18 19:40:43;;;;;;;;;;;;;;;;;;6203692;23;19912;-95
2024/03/18 19:43:10;;;;;;;;;;;;;;;;;;6230312;23;19907;-94
2024/03/18 19:45:36;;;;;;;;;;;;;;;;;;6201614;23;19907;-95
2024/03/18 19:48:02;;;;;;;;;;;;;;;;;;6199425;23;19935;-96
2024/03/18 19:50:28;;;;;;;;;;;;;;;;;;6202016;23;19947;-95
2024/03/18 19:52:57;;;;;;;;;;;;;;;;;;6199695;23;19946;-95
2024/03/18 19:55:23;;;;;;;;;;;;;;;;;;6197168;23;19908;-96
2024/03/18 19:57:48;;;;;;;;;;;;;;;;;;6197831;23;19907;-96
2024/03/18 20:00:16;;;;;;;;;;;;;;;;;;6200484;23;19927;-95
2024/03/18 20:02:44;;;;;;;;;;;;;;;;;;6226614;23;20319;-95
2024/03/18 20:05:11;;;;;;;;;;;;;;;;;;6196632;23;19942;-95
2024/03/18 20:07:37;;;;;;;;;;;;;;;;;;6197129;23;19904;-96
2024/03/18 20:10:03;;;;;;;;;;;;;;;;;;6193763;23;19907;-94
2024/03/18 20:12:28;;;;;;;;;;;;;;;;;;6192206;23;19904;-95
2024/03/18 20:14:54;;;;;;;;;;;;;;;;;;6191617;23;19919;-96
2024/03/18 20:17:19;;;;;;;;;;;;;;;;;;6193346;23;19915;-95
2024/03/18 20:19:45;;;;;;;;;;;;;;;;;;6194140;23;19975;-95
2024/03/18 20:22:12;;;;;;;;;;;;;;;;;;6217626;23;19915;-96
2024/03/18 20:24:48;;;;;;;;;;;;;;;;;;6252421;23;19917;-96
2024/03/18 20:27:13;;;;;;;;;;;;;;;;;;6223545;23;19935;-96
2024/03/18 20:29:39;;;;;;;;;;;;;;;;;;6225356;23;20323;-96
2024/03/18 20:32:05;;;;;;;;;;;;;;;;;;6221682;23;19957;-95
2024/03/18 20:34:31;;;;;;;;;;;;;;;;;;6222678;23;19947;-96
2024/03/18 20:36:57;;;;;;;;;;;;;;;;;;6224346;23;19911;-96
2024/03/18 20:39:24;;;;;;;;;;;;;;;;;;6224922;23;19914;-95
2024/03/18 20:41:50;;;;;;;;;;;;;;;;;;6232263;23;19907;-96
2024/03/18 20:44:22;;;;;;;;;;;;;;;;;;6229427;23;19934;-96
2024/03/18 20:46:48;;;;;;;;;;;;;;;;;;6211376;23;19916;-94
2024/03/18 20:49:15;;;;;;;;;;;;;;;;;;6187538;23;19911;-95
2024/03/18 20:51:40;;;;;;;;;;;;;;;;;;6214982;23;19915;-96
2024/03/18 20:54:08;;;;;;;;;;;;;;;;;;6210778;23;19908;-96
2024/03/18 20:56:36;;;;;;;;;;;;;;;;;;6187131;23;19966;-96
2024/03/18 20:59:02;;;;;;;;;;;;;;;;;;6211062;23;19935;-96
2024/03/18 21:01:29;;;;;;;;;;;;;;;;;;6209271;23;19931;-96
2024/03/18 21:03:54;;;;;;;;;;;;;;;;;;6234743;23;19975;-95
2024/03/18 21:06:20;;;;;;;;;;;;;;;;;;6208710;23;19903;-96
2024/03/18 21:08:46;;;;;;;;;;;;;;;;;;6208584;23;19908;-96
2024/03/18 21:11:11;;;;;;;;;;;;;;;;;;6212498;23;19910;-96
2024/03/18 21:13:38;;;;;;;;;;;;;;;;;;6238640;23;19963;-95
2024/03/18 21:16:03;;;;;;;;;;;;;;;;;;6208605;23;19908;-96
2024/03/18 21:18:29;;;;;;;;;;;;;;;;;;6208465;23;19903;-96
2024/03/18 21:20:54;;;;;;;;;;;;;;;;;;6207095;23;19914;-96
2024/03/18 21:23:20;;;;;;;;;;;;;;;;;;6207731;23;19907;-95
2024/03/18 21:25:46;;;;;;;;;;;;;;;;;;6232592;23;20224;-95
2024/03/18 21:28:12;;;;;;;;;;;;;;;;;;6206064;23;19912;-94
2024/03/18 21:30:37;;;;;;;;;;;;;;;;;;6202281;23;19914;-96
2024/03/18 21:33:03;;;;;;;;;;;;;;;;;;6198837;23;19911;-95
2024/03/18 21:35:28;;;;;;;;;;;;;;;;;;6201288;23;19908;-96
2024/03/18 21:37:54;;;;;;;;;;;;;;;;;;6202342;23;19936;-95
2024/03/18 21:40:19;;;;;;;;;;;;;;;;;;6229288;23;19946;-96
2024/03/18 21:42:46;;;;;;;;;;;;;;;;;;6201621;23;19914;-96
2024/03/18 21:45:12;;;;;;;;;;;;;;;;;;6184627;23;19916;-96
2024/03/18 21:47:38;;;;;;;;;;;;;;;;;;6171568;23;19908;-96
2024/03/18 21:50:04;;;;;;;;;;;;;;;;;;6172218;23;19915;-96
2024/03/18 21:52:29;;;;;;;;;;;;;;;;;;6198677;23;19908;-95
2024/03/18 21:54:55;;;;;;;;;;;;;;;;;;6173564;23;19904;-96
2024/03/18 21:57:20;;;;;;;;;;;;;;;;;;6172053;23;19912;-96
2024/03/18 21:59:46;;;;;;;;;;;;;;;;;;6173781;23;19983;-96
2024/03/18 22:02:11;;;;;;;;;;;;;;;;;;6173175;23;19935;-94
2024/03/18 22:04:36;;;;;;;;;;;;;;;;;;6172640;23;19907;-96
2024/03/18 22:07:04;;;;;;;;;;;;;;;;;;6177392;23;19956;-94
2024/03/18 22:09:29;;;;;;;;;;;;;;;;;;6181139;23;20320;-96
2024/03/18 22:11:59;;;;;;;;;;;;;;;;;;6213065;23;19964;-94
2024/03/18 22:14:26;;;;;;;;;;;;;;;;;;6223943;23;19932;-96
2024/03/18 22:16:51;;;;;;;;;;;;;;;;;;6197586;23;19908;-96
2024/03/18 22:19:17;;;;;;;;;;;;;;;;;;6194201;23;20319;-96
2024/03/18 22:21:43;;;;;;;;;;;;;;;;;;6193090;23;20331;-96
2024/03/18 22:24:09;;;;;;;;;;;;;;;;;;6192854;23;19986;-96
2024/03/18 22:26:34;;;;;;;;;;;;;;;;;;6194708;23;19942;-96
2024/03/18 22:28:59;;;;;;;;;;;;;;;;;;6219075;23;19914;-96
2024/03/18 22:31:26;;;;;;;;;;;;;;;;;;6193930;23;19931;-94
2024/03/18 22:33:52;;;;;;;;;;;;;;;;;;6191807;23;19941;-94
2024/03/18 22:36:17;;;;;;;;;;;;;;;;;;6191846;23;19908;-95
2024/03/18 22:38:43;;;;;;;;;;;;;;;;;;6193722;23;19908;-96
2024/03/18 22:41:13;;;;;;;;;;;;;;;;;;6193201;23;19962;-94
2024/03/18 22:43:41;;;;;;;;;;;;;;;;;;6194629;23;19908;-96
2024/03/18 22:46:07;;;;;;;;;;;;;;;;;;6196703;23;19919;-95
2024/03/18 22:48:32;;;;;;;;;;;;;;;;;;6200570;23;20324;-95
